Terminal Aerodrome Forecast
Issued by NWS

Home | Current Version | Previous Version | Text Only | Print | Product List | Glossary On
Versions: 1 2 3 4 5 6 7 8 9 10 11 12 13 14 15 16 17
000
FTUS43 KDMX 291731
TAFMCW
TAF
KMCW 291731Z 2918/3018 05015G22KT P6SM OVC150
     FM300000 05015G23KT P6SM OVC060
     FM300500 05015G24KT P6SM VCSH SCT018 OVC030
     FM300900 05016G24KT P6SM -SHRA OVC018
     FM301200 05018G25KT P6SM VCSH SCT008 OVC012=

USA.gov is the U.S. government's official web portal to all federal, state and local government web resources and services.